Time;durP1;ratioP1;P1;durP2;ratioP2;P2;SDS_P1;SDS_P2;PMS_P1;PMS_P2;Temp;Humidity;BMP_temperature;BMP_pressure;BME280_temperature;BME280_humidity;BME280_pressure;Samples;Min_cycle;Max_cycle;Signal;HPM_P1;HPM_P2
2023/10/20 00:00:14;;;;;;;54.30;35.50;;;8.40;99.90;;;;;;6230827;23;20016;-90
2023/10/20 00:02:41;;;;;;;51.10;37.38;;;7.80;99.90;;;;;;6231195;23;20207;-90
2023/10/20 00:05:08;;;;;;;58.92;40.08;;;8.20;99.90;;;;;;6230361;23;20016;-90
2023/10/20 00:07:37;;;;;;;49.03;35.97;;;7.80;99.90;;;;;;6228933;23;20034;-88
2023/10/20 00:10:03;;;;;;;57.72;42.85;;;7.90;99.90;;;;;;6231555;23;20016;-90
2023/10/20 00:12:30;;;;;;;60.42;43.25;;;7.80;99.90;;;;;;6229416;23;20008;-89
2023/10/20 00:14:56;;;;;;;65.43;40.50;;;8.50;99.90;;;;;;6230068;23;20012;-90
2023/10/20 00:17:22;;;;;;;74.22;58.67;;;8.80;99.90;;;;;;6230570;23;20504;-90
2023/10/20 00:19:48;;;;;;;72.38;48.72;;;7.90;99.90;;;;;;6230557;23;20670;-90
2023/10/20 00:22:15;;;;;;;74.70;44.28;;;8.60;99.90;;;;;;6229158;23;20020;-90
2023/10/20 00:24:41;;;;;;;73.63;46.42;;;7.80;99.90;;;;;;6229597;23;20016;-89
2023/10/20 00:27:08;;;;;;;79.10;44.88;;;8.70;99.90;;;;;;6229655;23;20020;-89
2023/10/20 00:29:34;;;;;;;79.63;44.05;;;8.80;99.90;;;;;;6230021;23;20016;-89
2023/10/20 00:32:00;;;;;;;81.20;42.95;;;8.00;99.90;;;;;;6228838;23;20004;-90
2023/10/20 00:34:26;;;;;;;85.05;45.55;;;8.90;99.90;;;;;;6229969;23;20008;-90
2023/10/20 00:36:52;;;;;;;92.28;44.65;;;8.90;99.90;;;;;;6229495;23;20015;-89
2023/10/20 00:39:19;;;;;;;79.35;44.85;;;7.90;99.90;;;;;;6230339;23;20039;-90
2023/10/20 00:41:44;;;;;;;90.38;47.50;;;8.00;99.90;;;;;;6229760;23;20055;-91
2023/10/20 00:44:10;;;;;;;96.18;48.67;;;8.60;99.90;;;;;;6229738;23;20019;-90
2023/10/20 00:46:36;;;;;;;95.78;51.33;;;8.60;99.90;;;;;;6228613;23;20000;-90
2023/10/20 00:49:02;;;;;;;102.60;49.15;;;7.90;99.90;;;;;;6230321;23;20004;-90
2023/10/20 00:51:28;;;;;;;89.93;48.58;;;7.80;99.90;;;;;;6230204;23;20016;-91
2023/10/20 00:53:58;;;;;;;100.80;51.22;;;8.80;99.90;;;;;;6229089;23;20020;-90
2023/10/20 00:56:27;;;;;;;94.10;46.42;;;8.80;99.90;;;;;;6229831;23;20072;-94
2023/10/20 00:58:53;;;;;;;109.68;51.13;;;7.80;99.90;;;;;;6206439;23;20016;-92
2023/10/20 01:01:18;;;;;;;101.82;49.50;;;7.80;99.90;;;;;;6228130;23;20078;-91
2023/10/20 01:03:44;;;;;;;120.25;78.22;;;8.00;99.90;;;;;;6229013;23;20012;-89
2023/10/20 01:06:10;;;;;;;112.60;60.70;;;8.30;99.90;;;;;;6229359;23;20023;-90
2023/10/20 01:08:40;;;;;;;102.88;46.22;;;8.90;99.90;;;;;;6229981;23;20020;-90
2023/10/20 01:11:05;;;;;;;107.03;55.42;;;7.80;99.90;;;;;;6205372;23;20023;-90
2023/10/20 01:13:31;;;;;;;109.82;49.05;;;8.90;99.90;;;;;;6229298;23;20028;-90
2023/10/20 01:15:57;;;;;;;126.78;71.88;;;7.80;99.90;;;;;;6227604;23;20060;-90
2023/10/20 01:18:23;;;;;;;124.10;52.53;;;8.20;99.90;;;;;;6228675;23;20015;-91
2023/10/20 01:20:49;;;;;;;120.57;50.95;;;8.30;99.90;;;;;;6229493;23;20012;-90
2023/10/20 01:23:15;;;;;;;123.82;60.20;;;7.70;99.90;;;;;;6230228;23;20055;-90
2023/10/20 01:25:40;;;;;;;161.32;55.60;;;7.10;99.90;;;;;;6230340;23;20058;-91
2023/10/20 01:28:09;;;;;;;126.43;51.55;;;8.30;99.90;;;;;;6230312;23;20323;-90
2023/10/20 01:30:35;;;;;;;130.88;53.00;;;7.80;99.90;;;;;;6229744;23;20285;-91
2023/10/20 01:33:01;;;;;;;140.32;55.40;;;8.30;99.90;;;;;;6230114;23;20016;-90
2023/10/20 01:35:27;;;;;;;129.60;52.90;;;8.90;99.90;;;;;;6229729;23;20008;-89
2023/10/20 01:37:53;;;;;;;136.30;51.10;;;8.00;99.90;;;;;;6229242;23;20012;-92
2023/10/20 01:40:19;;;;;;;136.57;56.75;;;7.60;99.90;;;;;;6228874;23;20016;-90
2023/10/20 01:42:45;;;;;;;125.97;53.53;;;8.10;99.90;;;;;;6228675;23;20043;-90
2023/10/20 01:45:11;;;;;;;126.13;52.28;;;8.90;99.90;;;;;;6230350;23;20034;-88
2023/10/20 01:47:36;;;;;;;130.93;50.33;;;7.80;99.90;;;;;;6230489;23;20534;-90
2023/10/20 01:50:02;;;;;;;140.90;53.75;;;7.80;99.90;;;;;;6229494;23;20048;-90
2023/10/20 01:52:28;;;;;;;163.82;66.93;;;7.80;99.90;;;;;;6229418;23;20012;-90
2023/10/20 01:54:54;;;;;;;106.07;51.28;;;8.40;99.90;;;;;;6229520;23;20007;-90
2023/10/20 01:57:21;;;;;;;131.32;54.63;;;8.70;99.90;;;;;;6229350;23;20028;-91
2023/10/20 01:59:46;;;;;;;121.25;51.75;;;8.10;99.90;;;;;;6205204;23;20012;-90
2023/10/20 02:02:13;;;;;;;116.90;52.03;;;8.20;99.90;;;;;;6229554;23;20015;-88
2023/10/20 02:04:39;;;;;;;118.07;55.67;;;8.60;99.90;;;;;;6229919;23;20497;-90
2023/10/20 02:07:05;;;;;;;139.82;54.35;;;8.90;99.90;;;;;;6230841;23;20051;-90
2023/10/20 02:09:31;;;;;;;110.22;47.10;;;8.00;99.90;;;;;;6231193;23;20012;-88
2023/10/20 02:11:58;;;;;;;110.20;58.50;;;8.50;99.90;;;;;;6231148;23;20012;-90
2023/10/20 02:14:27;;;;;;;117.85;51.95;;;8.70;99.90;;;;;;6231213;23;20022;-90
2023/10/20 02:16:52;;;;;;;114.13;53.03;;;8.80;99.90;;;;;;6231032;23;20047;-90
2023/10/20 02:19:18;;;;;;;114.93;49.35;;;8.60;99.90;;;;;;6231864;23;20023;-91
2023/10/20 02:21:44;;;;;;;99.20;50.17;;;8.20;99.90;;;;;;6232365;23;20027;-90
2023/10/20 02:24:10;;;;;;;94.47;46.70;;;8.90;99.90;;;;;;6231506;23;20012;-90
2023/10/20 02:26:36;;;;;;;114.90;50.70;;;7.90;99.90;;;;;;6230852;23;20016;-90
2023/10/20 02:29:02;;;;;;;106.43;56.53;;;7.90;99.90;;;;;;6231049;23;20623;-91
2023/10/20 02:31:28;;;;;;;102.88;48.65;;;8.90;99.90;;;;;;6230563;23;20040;-89
2023/10/20 02:33:54;;;;;;;112.78;56.78;;;9.00;99.90;;;;;;6230957;23;20016;-90
2023/10/20 02:36:21;;;;;;;93.38;46.10;;;8.90;99.90;;;;;;6231509;23;20069;-91
2023/10/20 02:38:48;;;;;;;106.28;50.90;;;8.50;99.90;;;;;;6230648;23;20091;-90
2023/10/20 02:41:14;;;;;;;90.28;48.25;;;7.60;99.90;;;;;;6230279;23;19996;-90
2023/10/20 02:43:40;;;;;;;94.10;46.58;;;8.20;99.90;;;;;;6205427;23;20036;-87
2023/10/20 02:46:07;;;;;;;97.47;47.85;;;8.70;99.90;;;;;;6230422;23;20090;-89
2023/10/20 02:48:33;;;;;;;109.28;49.60;;;7.90;99.90;;;;;;6230674;23;20059;-92
2023/10/20 02:51:11;;;;;;;102.53;82.88;;;8.20;99.90;;;;;;6230474;23;20018;-89
2023/10/20 02:53:39;;;;;;;90.40;51.10;;;7.50;99.90;;;;;;6227224;23;20068;-89
2023/10/20 02:56:16;;;;;;;84.13;49.97;;;8.80;99.90;;;;;;6228323;23;20012;-90
2023/10/20 02:58:45;;;;;;;94.97;45.63;;;7.10;99.90;;;;;;6228036;23;20062;-89
2023/10/20 03:01:13;;;;;;;87.38;54.75;;;8.90;99.90;;;;;;6227287;23;20008;-90
2023/10/20 03:03:39;;;;;;;95.20;44.97;;;9.00;99.90;;;;;;6227527;23;20012;-89
2023/10/20 03:06:06;;;;;;;83.55;45.10;;;8.80;99.90;;;;;;6227003;23;20121;-87
2023/10/20 03:08:34;;;;;;;86.47;45.28;;;8.10;99.90;;;;;;6227240;23;20014;-90
2023/10/20 03:11:00;;;;;;;75.93;41.10;;;8.70;99.90;;;;;;6226979;23;20015;-89
2023/10/20 03:13:26;;;;;;;71.80;43.55;;;8.00;99.90;;;;;;6227386;23;20016;-88
2023/10/20 03:15:53;;;;;;;86.90;49.85;;;8.10;99.90;;;;;;6227389;23;20012;-89
2023/10/20 03:18:19;;;;;;;81.97;43.83;;;8.50;99.90;;;;;;6227286;23;20012;-89
2023/10/20 03:20:46;;;;;;;75.43;44.60;;;8.30;99.90;;;;;;6227130;23;20086;-89
2023/10/20 03:23:13;;;;;;;73.63;43.00;;;8.50;99.90;;;;;;6227724;23;20008;-90
2023/10/20 03:25:40;;;;;;;64.45;39.65;;;7.90;99.90;;;;;;6227512;23;20319;-89
2023/10/20 03:28:06;;;;;;;75.82;37.65;;;8.90;99.90;;;;;;6226252;23;20435;-89
2023/10/20 03:30:38;;;;;;;70.22;44.13;;;7.80;99.90;;;;;;6226734;23;20008;-89
2023/10/20 03:33:12;;;;;;;81.05;43.03;;;8.60;99.90;;;;;;6227337;23;20012;-89
2023/10/20 03:35:38;;;;;;;68.38;42.17;;;7.80;99.90;;;;;;6227292;23;20019;-89
2023/10/20 03:38:06;;;;;;;79.22;43.95;;;7.10;99.90;;;;;;6228280;23;20513;-87
2023/10/20 03:40:36;;;;;;;77.47;59.45;;;8.80;99.90;;;;;;6226443;23;20013;-89
2023/10/20 03:43:09;;;;;;;85.20;53.88;;;8.80;99.90;;;;;;6227714;23;20012;-90
2023/10/20 03:45:41;;;;;;;71.25;42.38;;;7.70;99.90;;;;;;6228106;23;20020;-89
2023/10/20 03:48:09;;;;;;;66.93;39.33;;;7.80;99.90;;;;;;6227480;23;20316;-87
2023/10/20 03:50:41;;;;;;;77.00;41.40;;;7.70;99.90;;;;;;6227764;23;20020;-88
2023/10/20 03:53:07;;;;;;;70.65;41.55;;;7.70;99.90;;;;;;6227755;23;20020;-89
2023/10/20 03:55:36;;;;;;;79.10;44.33;;;8.50;99.90;;;;;;6228149;23;20016;-89
2023/10/20 03:58:06;;;;;;;68.05;48.40;;;7.70;99.90;;;;;;6230555;23;20012;-91
2023/10/20 04:00:35;;;;;;;69.78;49.17;;;7.70;99.90;;;;;;6232914;23;20030;-90
2023/10/20 04:03:01;;;;;;;73.80;43.55;;;7.70;99.90;;;;;;6230462;23;20449;-90
2023/10/20 04:05:27;;;;;;;65.25;40.92;;;8.30;99.90;;;;;;6229896;23;20020;-90
2023/10/20 04:07:53;;;;;;;69.85;41.90;;;8.70;99.90;;;;;;6230448;23;20016;-90
2023/10/20 04:10:19;;;;;;;62.75;43.33;;;8.30;99.90;;;;;;6229548;23;20019;-90
2023/10/20 04:12:46;;;;;;;61.08;34.88;;;7.60;99.90;;;;;;6230702;23;20004;-90
2023/10/20 04:15:16;;;;;;;61.90;53.03;;;7.60;99.90;;;;;;6231475;23;20016;-90
2023/10/20 04:17:51;;;;;;;65.30;39.92;;;7.60;99.90;;;;;;6228798;23;20012;-89
2023/10/20 04:20:19;;;;;;;64.03;39.00;;;7.00;99.90;;;;;;6229785;23;20012;-91
2023/10/20 04:22:49;;;;;;;61.75;54.53;;;7.60;99.90;;;;;;6228784;23;20016;-91
2023/10/20 04:25:19;;;;;;;53.90;42.33;;;7.60;99.90;;;;;;6229067;23;20065;-89
2023/10/20 04:27:49;;;;;;;70.93;58.03;;;7.60;99.90;;;;;;6229216;23;20259;-92
2023/10/20 04:47:28;;;;;;;42.70;32.60;;;7.60;99.90;;;;;;6245195;23;20117;-91
2023/10/20 05:07:57;;;;;;;48.50;34.03;;;7.60;99.90;;;;;;6253906;23;20107;-91
2023/10/20 05:10:23;;;;;;;40.78;30.67;;;7.60;99.90;;;;;;6219130;23;20012;-91
2023/10/20 05:12:49;;;;;;;36.75;30.45;;;8.60;99.90;;;;;;6219881;23;20489;-91
2023/10/20 05:15:15;;;;;;;50.13;41.35;;;7.60;99.90;;;;;;6219353;23;20046;-91
2023/10/20 05:17:42;;;;;;;59.15;52.85;;;7.60;99.90;;;;;;6225126;23;20016;-90
2023/10/20 05:20:15;;;;;;;35.95;29.95;;;7.60;99.90;;;;;;6216991;23;20016;-90
2023/10/20 05:22:41;;;;;;;36.00;28.83;;;7.60;99.90;;;;;;6242104;23;20012;-88
2023/10/20 05:25:08;;;;;;;58.28;52.90;;;7.70;99.90;;;;;;6242349;23;20046;-88
2023/10/20 05:27:34;;;;;;;36.45;32.05;;;7.00;99.90;;;;;;6242919;23;20020;-89
2023/10/20 05:30:00;;;;;;;33.17;26.80;;;8.50;99.90;;;;;;6241420;23;20023;-89
2023/10/20 05:32:27;;;;;;;38.83;34.72;;;7.70;99.90;;;;;;6242246;23;20012;-91
2023/10/20 05:35:26;;;;;;;41.92;37.80;;;6.90;99.90;;;;;;6241659;23;20020;-90
2023/10/20 05:37:54;;;;;;;31.52;28.02;;;7.70;99.90;;;;;;6240823;23;20050;-91
2023/10/20 05:40:20;;;;;;;73.90;67.38;;;7.60;99.90;;;;;;6194508;23;20060;-91
2023/10/20 05:42:46;;;;;;;26.83;23.25;;;7.60;99.90;;;;;;6243353;23;20039;-91
2023/10/20 05:45:20;;;;;;;27.45;23.77;;;8.50;99.90;;;;;;6242703;23;20023;-90
2023/10/20 05:47:47;;;;;;;27.08;20.27;;;7.70;99.90;;;;;;6243383;23;20012;-90
2023/10/20 05:50:36;;;;;;;56.72;51.88;;;7.70;99.90;;;;;;6244080;23;20051;-92
2023/10/20 05:53:03;;;;;;;28.52;23.05;;;7.50;99.90;;;;;;6244455;23;20019;-91
2023/10/20 05:55:28;;;;;;;27.88;24.98;;;7.60;99.90;;;;;;6243720;23;20016;-88
2023/10/20 05:57:54;;;;;;;32.40;29.15;;;8.70;99.90;;;;;;6243411;23;20079;-89
2023/10/20 06:00:20;;;;;;;29.80;26.83;;;8.40;99.90;;;;;;6244317;23;20023;-90
2023/10/20 06:02:47;;;;;;;29.02;25.42;;;7.60;99.90;;;;;;6244197;23;20012;-89
2023/10/20 06:05:13;;;;;;;23.67;20.25;;;8.70;99.90;;;;;;6243105;23;20008;-91
2023/10/20 06:07:43;;;;;;;26.75;23.95;;;7.70;99.90;;;;;;6244205;23;20047;-92
2023/10/20 06:10:13;;;;;;;27.92;25.35;;;7.60;99.90;;;;;;6243755;23;20024;-91
2023/10/20 06:12:39;;;;;;;22.67;20.25;;;7.50;99.90;;;;;;6245701;23;20027;-90
2023/10/20 06:15:08;;;;;;;28.38;25.45;;;7.30;99.90;;;;;;6243376;23;20011;-90
2023/10/20 06:17:35;;;;;;;31.00;27.75;;;7.70;99.90;;;;;;6242289;23;20016;-89
2023/10/20 06:20:05;;;;;;;27.27;23.60;;;7.20;99.90;;;;;;6242280;23;20020;-90
2023/10/20 06:22:31;;;;;;;26.33;23.55;;;7.80;99.90;;;;;;6242859;23;20000;-90
2023/10/20 06:24:59;;;;;;;25.27;22.35;;;7.70;99.90;;;;;;6243102;23;20063;-90
2023/10/20 06:27:25;;;;;;;26.58;24.10;;;7.70;99.90;;;;;;6241038;23;20016;-88
2023/10/20 06:29:58;;;;;;;28.90;25.92;;;8.10;99.90;;;;;;6242443;23;20016;-88
2023/10/20 06:32:31;;;;;;;24.50;21.35;;;7.70;99.90;;;;;;6241748;23;20010;-89
2023/10/20 06:35:00;;;;;;;28.13;25.38;;;7.70;99.90;;;;;;6236506;23;20018;-88
2023/10/20 06:39:56;;;;;;;25.70;22.08;;;8.30;99.90;;;;;;6266402;23;20246;-88
2023/10/20 06:42:24;;;;;;;32.45;29.38;;;8.10;99.90;;;;;;6240163;23;20012;-89
2023/10/20 06:44:50;;;;;;;22.38;20.17;;;7.80;99.90;;;;;;6211836;23;20019;-89
2023/10/20 06:47:16;;;;;;;25.35;22.77;;;8.90;99.90;;;;;;6211670;23;20025;-89
2023/10/20 06:49:42;;;;;;;24.77;22.38;;;7.20;99.90;;;;;;6211779;23;20064;-89
2023/10/20 06:52:08;;;;;;;30.30;27.63;;;8.60;99.90;;;;;;6210768;23;20016;-87
2023/10/20 06:54:34;;;;;;;89.80;82.57;;;7.60;99.90;;;;;;6211350;23;20042;-88
2023/10/20 06:57:00;;;;;;;26.27;23.92;;;8.20;99.90;;;;;;6211695;23;20009;-89
2023/10/20 06:59:26;;;;;;;31.98;29.42;;;7.80;99.90;;;;;;6212146;23;20048;-90
2023/10/20 07:01:57;;;;;;;23.77;20.23;;;7.70;99.90;;;;;;6210979;23;20019;-90
2023/10/20 07:04:23;;;;;;;30.45;27.90;;;7.60;99.90;;;;;;6210723;23;20016;-89
2023/10/20 07:06:51;;;;;;;60.28;54.90;;;7.80;99.90;;;;;;6211331;23;20067;-88
2023/10/20 07:09:17;;;;;;;21.83;19.83;;;8.10;99.90;;;;;;6211594;23;20023;-87
2023/10/20 07:11:43;;;;;;;22.65;20.85;;;8.70;99.90;;;;;;6209842;23;20017;-90
2023/10/20 07:14:12;;;;;;;22.77;20.75;;;8.70;99.90;;;;;;6211174;23;20016;-89
2023/10/20 07:16:39;;;;;;;15.60;14.30;;;8.70;99.90;;;;;;6211403;23;20040;-89
2023/10/20 07:19:06;;;;;;;18.65;16.92;;;8.70;99.90;;;;;;6186533;23;20020;-87
2023/10/20 07:21:32;;;;;;;25.75;23.80;;;7.70;99.90;;;;;;6210726;23;20052;-89
2023/10/20 07:23:58;;;;;;;35.15;32.70;;;7.70;99.90;;;;;;6211119;23;20382;-88
2023/10/20 07:26:24;;;;;;;23.83;22.13;;;8.20;99.90;;;;;;6236763;23;20025;-90
2023/10/20 07:28:50;;;;;;;18.13;16.58;;;7.60;99.90;;;;;;6211867;23;20019;-89
2023/10/20 07:31:21;;;;;;;18.58;16.80;;;8.60;99.90;;;;;;6210854;23;20359;-88
2023/10/20 07:33:47;;;;;;;15.52;14.18;;;8.60;99.90;;;;;;6211669;23;20604;-90
2023/10/20 07:36:15;;;;;;;29.73;27.38;;;7.50;99.90;;;;;;6211104;23;20068;-88
2023/10/20 07:38:42;;;;;;;20.55;18.90;;;8.20;99.90;;;;;;6210634;23;20017;-90
2023/10/20 07:41:11;;;;;;;28.80;26.67;;;7.00;99.90;;;;;;6211644;23;20013;-90
2023/10/20 07:43:38;;;;;;;19.17;17.52;;;7.50;99.90;;;;;;6211903;23;20013;-91
2023/10/20 07:46:05;;;;;;;19.33;17.42;;;8.40;99.90;;;;;;6211941;23;20036;-89
2023/10/20 07:48:32;;;;;;;26.20;23.92;;;8.50;99.90;;;;;;6211106;23;20017;-89
2023/10/20 07:51:01;;;;;;;24.42;22.15;;;7.50;99.90;;;;;;6209676;23;20013;-90
2023/10/20 07:53:29;;;;;;;33.10;30.48;;;7.50;99.90;;;;;;6210744;23;20027;-88
2023/10/20 07:55:55;;;;;;;21.02;18.92;;;7.40;99.90;;;;;;6208455;23;20271;-89
2023/10/20 07:58:21;;;;;;;53.17;42.53;;;7.40;99.90;;;;;;6209122;23;20197;-89
2023/10/20 08:00:47;;;;;;;17.90;16.15;;;8.40;99.90;;;;;;6206486;23;20009;-87
2023/10/20 08:03:12;;;;;;;34.20;31.33;;;7.50;99.90;;;;;;6206914;23;20403;-88
2023/10/20 08:05:39;;;;;;;17.48;15.82;;;7.30;99.90;;;;;;6206673;23;20016;-90
2023/10/20 08:08:05;;;;;;;15.98;14.45;;;8.30;99.90;;;;;;6207414;23;20016;-90
2023/10/20 08:10:32;;;;;;;31.02;28.60;;;7.30;99.90;;;;;;6207421;23;20016;-88
2023/10/20 08:12:59;;;;;;;21.40;19.73;;;7.60;99.90;;;;;;6208823;23;20016;-89
2023/10/20 08:15:28;;;;;;;18.13;16.17;;;7.30;99.90;;;;;;6208518;23;20035;-88
2023/10/20 08:17:54;;;;;;;34.03;31.58;;;8.30;99.90;;;;;;6208875;23;20009;-90
2023/10/20 08:20:21;;;;;;;15.85;14.30;;;7.60;99.90;;;;;;6235578;23;20043;-90
2023/10/20 08:22:47;;;;;;;29.58;27.17;;;7.80;99.90;;;;;;6209418;23;20013;-88
2023/10/20 08:25:13;;;;;;;18.00;16.38;;;7.30;99.90;;;;;;6207699;23;20055;-89
2023/10/20 08:27:39;;;;;;;38.25;35.67;;;8.40;99.90;;;;;;6207963;23;20012;-90
2023/10/20 08:30:05;;;;;;;19.40;17.60;;;8.20;99.90;;;;;;6210155;23;20088;-87
2023/10/20 08:32:31;;;;;;;20.83;19.05;;;7.20;99.90;;;;;;6209171;23;20065;-89
2023/10/20 08:34:58;;;;;;;20.65;18.65;;;7.50;99.90;;;;;;6206816;23;20012;-87
2023/10/20 08:37:25;;;;;;;13.38;11.40;;;8.20;99.90;;;;;;6207376;23;20054;-88
2023/10/20 08:39:50;;;;;;;16.60;14.15;;;8.20;99.90;;;;;;6206661;23;20124;-89
2023/10/20 08:42:17;;;;;;;23.17;21.10;;;7.60;99.90;;;;;;6208023;23;20013;-89
2023/10/20 08:44:44;;;;;;;18.40;16.75;;;7.20;99.90;;;;;;6207156;23;20013;-88
2023/10/20 08:47:15;;;;;;;21.63;19.80;;;8.20;99.90;;;;;;6208372;23;20008;-89
2023/10/20 08:49:42;;;;;;;14.63;13.30;;;7.10;99.90;;;;;;6208719;23;20047;-88
2023/10/20 08:52:11;;;;;;;25.05;22.95;;;7.70;99.90;;;;;;6206167;23;20016;-89
2023/10/20 08:54:37;;;;;;;17.15;15.60;;;7.10;99.90;;;;;;6204895;23;20095;-89
2023/10/20 08:57:04;;;;;;;11.50;10.25;;;8.10;99.90;;;;;;6203705;23;20111;-89
2023/10/20 08:59:31;;;;;;;18.60;17.15;;;7.10;99.90;;;;;;6203919;23;20023;-88
2023/10/20 09:01:57;;;;;;;17.73;16.05;;;7.30;99.90;;;;;;6203688;23;20010;-88
2023/10/20 09:04:26;;;;;;;24.45;22.50;;;7.60;99.90;;;;;;6203044;23;20021;-89
2023/10/20 09:06:54;;;;;;;26.88;24.80;;;8.00;99.90;;;;;;6203140;23;20020;-89
2023/10/20 09:09:21;;;;;;;16.52;15.15;;;8.20;99.90;;;;;;6203192;23;20027;-88
2023/10/20 09:11:47;;;;;;;17.45;16.23;;;8.20;99.90;;;;;;6203110;23;20342;-89
2023/10/20 09:14:14;;;;;;;12.95;11.77;;;6.40;99.90;;;;;;6205430;23;20016;-88
2023/10/20 09:16:41;;;;;;;27.58;25.17;;;7.10;99.90;;;;;;6206969;23;20346;-90
2023/10/20 09:19:11;;;;;;;17.27;15.90;;;7.10;99.90;;;;;;6208232;23;20016;-89
2023/10/20 09:21:41;;;;;;;13.43;12.38;;;7.20;99.90;;;;;;6207274;23;20017;-89
2023/10/20 09:24:08;;;;;;;58.72;53.35;;;8.00;99.90;;;;;;6208464;23;20019;-89
2023/10/20 09:26:36;;;;;;;13.55;12.18;;;7.10;99.90;;;;;;6208068;23;20024;-88
2023/10/20 09:29:05;;;;;;;17.90;16.60;;;7.90;99.90;;;;;;6183651;23;20016;-90
2023/10/20 09:31:31;;;;;;;20.10;18.73;;;7.50;99.90;;;;;;6207227;23;20023;-90
2023/10/20 09:33:58;;;;;;;37.53;35.08;;;7.50;99.90;;;;;;6206527;23;20015;-89
2023/10/20 09:36:24;;;;;;;10.30;9.30;;;8.10;99.90;;;;;;6207426;23;20221;-88
2023/10/20 09:38:55;;;;;;;17.38;15.85;;;7.40;99.90;;;;;;6206731;23;20270;-88
2023/10/20 09:41:23;;;;;;;62.03;56.05;;;6.30;99.90;;;;;;6206309;23;20020;-89
2023/10/20 09:43:53;;;;;;;17.08;15.60;;;7.10;99.90;;;;;;6206776;23;20016;-88
2023/10/20 09:47:17;;;;;;;16.35;14.95;;;7.30;99.90;;;;;;6205661;23;20076;-88
2023/10/20 09:49:43;;;;;;;10.70;9.70;;;7.10;99.90;;;;;;6144826;23;20025;-89
2023/10/20 09:52:10;;;;;;;23.15;21.42;;;7.30;99.90;;;;;;6145035;23;20061;-87
2023/10/20 09:54:37;;;;;;;10.38;9.48;;;8.10;99.90;;;;;;6120393;23;20069;-89
2023/10/20 09:57:05;;;;;;;11.40;10.27;;;7.30;99.90;;;;;;6145101;23;20023;-89
2023/10/20 09:59:31;;;;;;;17.02;15.85;;;7.50;99.90;;;;;;6121802;23;20017;-87
2023/10/20 10:02:01;;;;;;;17.35;16.23;;;7.30;99.90;;;;;;6120431;23;20013;-89
2023/10/20 10:04:36;;;;;;;34.92;32.70;;;8.10;99.90;;;;;;6134861;23;20043;-87
2023/10/20 10:07:03;;;;;;;16.23;14.68;;;6.90;99.90;;;;;;6176018;23;20051;-86
2023/10/20 10:09:43;;;;;;;17.25;15.90;;;6.90;99.90;;;;;;6173512;23;20036;-88
2023/10/20 10:12:16;;;;;;;12.30;11.30;;;7.80;99.90;;;;;;6173081;23;20044;-86
2023/10/20 10:14:53;;;;;;;13.15;12.10;;;6.90;99.90;;;;;;6162634;23;20019;-87
2023/10/20 10:17:22;;;;;;;10.90;9.85;;;7.40;99.90;;;;;;6162316;23;20012;-89
2023/10/20 10:19:51;;;;;;;19.00;17.63;;;7.10;99.90;;;;;;6172001;23;20012;-87
2023/10/20 10:22:17;;;;;;;16.55;15.18;;;7.70;99.90;;;;;;6220536;23;20015;-91
2023/10/20 10:24:54;;;;;;;18.10;16.73;;;6.90;99.90;;;;;;6219727;23;20095;-87
2023/10/20 10:27:22;;;;;;;12.75;11.77;;;7.90;99.90;;;;;;6219860;23;20044;-87
2023/10/20 10:29:54;;;;;;;12.77;11.88;;;7.50;99.90;;;;;;6219108;23;20012;-86
2023/10/20 10:32:27;;;;;;;11.88;10.65;;;7.80;99.90;;;;;;6218537;23;20035;-86
2023/10/20 10:34:54;;;;;;;14.43;13.48;;;7.70;99.90;;;;;;6217865;23;20020;-85
2023/10/20 10:37:27;;;;;;;16.63;15.52;;;6.60;99.90;;;;;;6217060;23;20020;-85
2023/10/20 10:39:53;;;;;;;14.55;13.55;;;7.30;99.90;;;;;;6242785;23;20019;-85
2023/10/20 10:42:19;;;;;;;13.60;12.50;;;6.00;99.90;;;;;;6216643;23;20016;-85
2023/10/20 10:44:44;;;;;;;15.63;14.35;;;7.70;99.90;;;;;;6216596;23;20043;-85
2023/10/20 10:47:20;;;;;;;10.82;9.90;;;7.70;99.90;;;;;;6216808;23;20019;-84
2023/10/20 10:49:48;;;;;;;36.70;32.75;;;6.70;99.90;;;;;;6215653;23;20012;-85
2023/10/20 10:52:14;;;;;;;18.42;17.13;;;6.70;99.90;;;;;;6216410;23;20015;-86
2023/10/20 10:54:40;;;;;;;16.08;14.90;;;6.90;99.90;;;;;;6241927;23;20012;-84
2023/10/20 10:57:05;;;;;;;17.98;16.77;;;6.90;99.90;;;;;;6215045;23;20015;-84
2023/10/20 10:59:32;;;;;;;14.75;13.80;;;6.60;99.90;;;;;;6240652;22;20012;-84
2023/10/20 11:02:01;;;;;;;15.48;14.40;;;6.60;99.90;;;;;;6215211;23;20016;-84
2023/10/20 11:04:27;;;;;;;10.38;9.68;;;6.80;99.90;;;;;;6207393;23;20020;-84
2023/10/20 11:06:53;;;;;;;23.42;21.90;;;7.00;99.90;;;;;;6210679;23;20024;-84
2023/10/20 11:09:19;;;;;;;27.60;25.90;;;6.70;99.90;;;;;;6185093;23;20143;-84
2023/10/20 11:11:48;;;;;;;21.70;20.38;;;7.70;99.90;;;;;;6209685;23;20101;-83
2023/10/20 11:14:18;;;;;;;9.57;8.95;;;7.40;99.90;;;;;;6209798;23;20451;-83
2023/10/20 11:16:43;;;;;;;10.02;9.32;;;6.50;99.90;;;;;;6210086;23;20012;-83
2023/10/20 11:19:12;;;;;;;11.45;10.65;;;6.50;99.90;;;;;;6210716;23;20013;-83
2023/10/20 11:21:56;;;;;;;13.93;12.98;;;7.40;99.90;;;;;;6209986;23;20039;-83
2023/10/20 11:24:34;;;;;;;52.50;48.40;;;6.50;99.90;;;;;;6210066;23;20455;-83
2023/10/20 11:27:02;;;;;;;9.25;8.57;;;6.60;99.90;;;;;;6184718;23;20350;-83
2023/10/20 11:29:29;;;;;;;21.77;20.23;;;6.60;99.90;;;;;;6208993;23;20406;-83
2023/10/20 11:32:05;;;;;;;13.95;13.02;;;6.60;99.90;;;;;;6209735;23;20017;-83
2023/10/20 11:34:35;;;;;;;13.82;12.82;;;6.60;99.90;;;;;;6184118;23;20078;-83
2023/10/20 11:37:00;;;;;;;14.40;13.50;;;6.70;99.90;;;;;;6184141;23;20013;-83
2023/10/20 11:39:27;;;;;;;76.38;70.40;;;6.30;99.90;;;;;;6208894;23;20005;-83
2023/10/20 11:41:56;;;;;;;10.45;9.75;;;6.60;99.90;;;;;;6209550;23;20059;-82
2023/10/20 11:44:26;;;;;;;14.57;13.65;;;6.60;99.90;;;;;;6210032;23;20339;-84
2023/10/20 11:46:53;;;;;;;13.52;12.63;;;7.60;99.90;;;;;;6209713;23;20016;-84
2023/10/20 11:49:20;;;;;;;19.52;18.02;;;6.60;99.90;;;;;;6209352;23;20013;-83
2023/10/20 11:51:46;;;;;;;98.35;90.13;;;7.30;99.90;;;;;;6209417;23;20009;-83
2023/10/20 11:54:12;;;;;;;15.15;14.15;;;7.50;99.90;;;;;;6208217;23;20054;-83
2023/10/20 11:56:38;;;;;;;16.52;15.30;;;7.50;99.90;;;;;;6208979;23;20029;-83
2023/10/20 11:59:04;;;;;;;8.18;7.57;;;6.60;99.90;;;;;;6209093;23;20016;-84
2023/10/20 12:01:31;;;;;;;11.52;10.77;;;7.50;99.90;;;;;;6208590;23;20447;-83
2023/10/20 12:04:02;;;;;;;9.40;8.70;;;7.00;99.90;;;;;;6187316;22;20013;-83
2023/10/20 12:06:28;;;;;;;9.52;8.85;;;6.60;99.90;;;;;;6244754;22;20023;-83
2023/10/20 12:08:53;;;;;;;11.50;10.57;;;7.80;99.90;;;;;;6218869;22;20094;-83
2023/10/20 12:11:19;;;;;;;15.63;14.48;;;7.50;99.90;;;;;;6244579;22;20469;-83
2023/10/20 12:13:48;;;;;;;18.00;16.90;;;7.00;99.90;;;;;;6244765;22;20077;-83
2023/10/20 12:16:14;;;;;;;9.00;8.30;;;7.40;99.90;;;;;;6244605;22;20481;-86
2023/10/20 12:18:42;;;;;;;15.05;14.02;;;6.60;99.90;;;;;;6220376;22;20218;-83
2023/10/20 12:21:07;;;;;;;13.07;12.18;;;7.00;99.90;;;;;;6220070;22;20015;-83
2023/10/20 12:23:34;;;;;;;19.58;18.38;;;7.10;99.90;;;;;;6272829;22;20008;-83
2023/10/20 12:25:59;;;;;;;101.47;92.90;;;6.80;99.90;;;;;;6220155;22;20007;-83
2023/10/20 12:28:26;;;;;;;12.07;11.32;;;6.60;99.90;;;;;;6220767;22;20085;-83
2023/10/20 12:30:52;;;;;;;8.57;7.88;;;7.80;99.90;;;;;;6245947;22;20495;-83
2023/10/20 12:33:17;;;;;;;16.70;15.60;;;7.60;99.90;;;;;;6220515;22;20067;-84
2023/10/20 12:35:43;;;;;;;51.88;38.17;;;7.30;99.90;;;;;;6246135;22;20016;-83
2023/10/20 12:38:09;;;;;;;9.07;8.32;;;7.50;99.90;;;;;;6220170;22;20011;-84
2023/10/20 12:40:40;;;;;;;11.38;10.65;;;7.20;99.90;;;;;;6245631;22;20047;-84
2023/10/20 12:43:09;;;;;;;9.05;8.38;;;7.70;99.90;;;;;;6219253;22;20066;-83
2023/10/20 12:45:38;;;;;;;11.63;10.85;;;6.60;99.90;;;;;;6219908;22;20050;-84
2023/10/20 12:48:05;;;;;;;13.73;12.80;;;7.00;99.90;;;;;;6219929;22;20378;-83
2023/10/20 12:50:32;;;;;;;16.48;15.25;;;6.60;99.90;;;;;;6244886;22;20011;-83
2023/10/20 12:53:07;;;;;;;11.30;10.35;;;6.80;99.90;;;;;;6243950;22;20016;-84
2023/10/20 12:55:33;;;;;;;50.17;45.33;;;6.60;99.90;;;;;;6219727;22;20030;-83
2023/10/20 12:57:59;;;;;;;10.43;9.73;;;7.50;99.90;;;;;;6245087;22;20226;-83
2023/10/20 13:00:27;;;;;;;13.75;12.85;;;6.60;99.90;;;;;;6246006;22;20019;-84
2023/10/20 13:02:53;;;;;;;58.40;53.63;;;6.80;99.90;;;;;;6247334;22;20243;-84
2023/10/20 13:05:21;;;;;;;19.17;17.98;;;7.40;99.90;;;;;;6222644;23;20408;-84
2023/10/20 13:07:47;;;;;;;9.95;9.25;;;7.40;99.90;;;;;;6209732;23;20027;-84
2023/10/20 13:10:13;;;;;;;11.98;11.15;;;6.60;99.90;;;;;;6185900;23;20012;-84
2023/10/20 13:12:40;;;;;;;14.32;13.43;;;5.90;99.90;;;;;;6185641;23;20021;-83
2023/10/20 13:15:06;;;;;;;7.00;6.50;;;6.60;99.90;;;;;;6210416;23;20112;-83